This is the latest recevied weather packets stored in our database for station/object G4MHJ-1. If no packets are shown the sender has not sent any weather packets the latest 10 day(s).
| Time | Temp. | Humidity | Pressure | Rain* | Wind** | Luminosity | Snow |
|---|---|---|---|---|---|---|---|
| 1777785629 | 13.33° C | 90% | 1008.7 hPa | 0 mm | - | 12 W/m² | - |
| 1777782029 | 13.89° C | 89% | 1008.8 hPa | 0 mm | - | 0 W/m² | - |
| 1777778430 | 13.89° C | 89% | 1008.8 hPa | 0 mm | - | 0 W/m² | - |
| 1777774829 | 13.89° C | 90% | 1009.1 hPa | 0 mm | - | 0 W/m² | - |
| 1777771228 | 13.89° C | 91% | 1009.5 hPa | 0 mm | - | 0 W/m² | - |
| 1777767627 | 13.89° C | 91% | 1010 hPa | 0 mm | - | 0 W/m² | - |
| 1777764027 | 14.44° C | 90% | 1010.2 hPa | 0 mm | - | 0 W/m² | - |
| 1777760424 | 14.44° C | 89% | 1010.3 hPa | 0 mm | - | 0 W/m² | - |
| 1777756822 | 15° C | 87% | 1010.4 hPa | 0 mm | - | 0 W/m² | - |
| 1777753221 | 15.56° C | 84% | 1011.2 hPa | 0 mm | - | 0 W/m² | - |
| 1777749619 | 16.11° C | 82% | 1011 hPa | 0 mm | - | 0 W/m² | - |
| 1777746020 | 16.67° C | 76% | 1011.4 hPa | 0 mm | - | 18 W/m² | - |
| 1777742418 | 18.33° C | 72% | 1011.8 hPa | 0 mm | - | 12 W/m² | - |
| 1777738818 | 20.56° C | 66% | 1012 hPa | 0 mm | - | 60 W/m² | - |
| 1777735218 | 22.78° C | 55% | 1012.5 hPa | 0 mm | - | 149 W/m² | - |
| 1777731618 | 23.89° C | 45% | 1013.3 hPa | 0 mm | - | 624 W/m² | - |
| 1777728012 | 22.78° C | 46% | 1014.4 hPa | 0 mm | - | 788 W/m² | - |
| 1777724410 | 21.67° C | 49% | 1015.1 hPa | 0 mm | - | 684 W/m² | - |
| 1777720810 | 19.44° C | 57% | 1015.9 hPa | 0 mm | - | 218 W/m² | - |
| 1777717208 | 17.78° C | 64% | 1016.7 hPa | 0 mm | - | 178 W/m² | - |
| 1777713610 | 16.11° C | 73% | 1017.1 hPa | 0 mm | - | 125 W/m² | - |
| 1777710006 | 13.89° C | 84% | 1017.8 hPa | 0 mm | - | 62 W/m² | - |
| 1777706402 | 12.22° C | 90% | 1017.8 hPa | 0 mm | - | 121 W/m² | - |
| 1777702801 | 10.56° C | 93% | 1017.8 hPa | 0 mm | - | 62 W/m² | - |
| 1777699206 | 10.56° C | 94% | 1017.6 hPa | 0 mm | - | 35 W/m² | - |
* Rain latest hour (hover to see other rain measurements)
** Current wind speed in m/s (hover to see current wind gust speed)